Time;durP1;ratioP1;P1;durP2;ratioP2;P2;SDS_P1;SDS_P2;PMS_P1;PMS_P2;Temp;Humidity;BMP_temperature;BMP_pressure;BME280_temperature;BME280_humidity;BME280_pressure;Samples;Min_cycle;Max_cycle;Signal;HPM_P1;HPM_P2
2023/04/04 00:00:15;;;;;;;2.73;1.90;;;4.10;99.90;;;;;;5080336;28;20287;-82
2023/04/04 00:02:43;;;;;;;2.97;1.83;;;4.10;99.90;;;;;;5093694;28;20273;-81
2023/04/04 00:05:10;;;;;;;3.93;1.70;;;4.00;99.90;;;;;;5093003;28;20203;-82
2023/04/04 00:07:37;;;;;;;3.97;1.83;;;4.00;99.90;;;;;;5093486;28;20223;-82
2023/04/04 00:10:04;;;;;;;2.80;1.70;;;3.90;99.90;;;;;;5076893;28;20209;-82
2023/04/04 00:12:31;;;;;;;2.60;1.70;;;3.90;99.90;;;;;;5073058;28;20533;-81
2023/04/04 00:14:58;;;;;;;2.77;1.80;;;3.80;99.90;;;;;;5073269;28;20228;-81
2023/04/04 00:17:25;;;;;;;5.10;2.20;;;3.80;99.90;;;;;;5053499;28;20271;-83
2023/04/04 00:19:56;;;;;;;3.50;1.70;;;3.70;99.90;;;;;;5052664;28;20229;-82
2023/04/04 00:22:22;;;;;;;4.00;1.80;;;3.70;99.90;;;;;;5053019;28;20305;-82
2023/04/04 00:24:50;;;;;;;3.70;2.43;;;3.60;99.90;;;;;;5053661;28;20216;-81
2023/04/04 00:27:17;;;;;;;3.30;1.77;;;3.60;99.90;;;;;;5052473;28;20229;-83
2023/04/04 00:29:44;;;;;;;2.60;1.80;;;3.50;99.90;;;;;;5052986;28;20256;-83
2023/04/04 00:32:11;;;;;;;3.03;1.90;;;3.50;99.90;;;;;;5053028;28;20241;-82
2023/04/04 00:34:38;;;;;;;2.67;1.67;;;3.50;99.90;;;;;;5053262;28;20229;-82
2023/04/04 00:37:06;;;;;;;2.80;1.80;;;3.50;99.90;;;;;;5080296;28;20550;-83
2023/04/04 00:39:33;;;;;;;2.77;1.90;;;3.40;99.90;;;;;;5092465;28;20793;-82
2023/04/04 00:42:00;;;;;;;3.17;1.80;;;3.40;99.90;;;;;;5092978;28;20566;-81
2023/04/04 00:44:29;;;;;;;2.77;1.50;;;3.30;99.90;;;;;;5070600;28;20271;-82
2023/04/04 00:46:56;;;;;;;3.17;1.80;;;3.30;99.90;;;;;;5052594;28;20583;-81
2023/04/04 00:49:23;;;;;;;2.27;1.40;;;3.30;99.90;;;;;;5052905;28;20190;-82
2023/04/04 00:51:50;;;;;;;3.33;1.70;;;3.20;99.90;;;;;;5055623;28;20224;-82
2023/04/04 00:54:18;;;;;;;4.17;2.37;;;3.20;99.90;;;;;;5072589;28;20284;-82
2023/04/04 00:56:45;;;;;;;2.40;1.73;;;3.10;99.90;;;;;;5073301;28;20536;-81
2023/04/04 00:59:13;;;;;;;1.63;1.20;;;3.10;99.90;;;;;;5072715;28;20197;-82
2023/04/04 01:01:40;;;;;;;2.10;1.60;;;3.00;99.90;;;;;;5072245;28;20205;-81
2023/04/04 01:04:07;;;;;;;2.23;1.30;;;3.00;99.90;;;;;;5072183;28;20620;-83
2023/04/04 01:06:34;;;;;;;1.57;1.40;;;3.00;99.90;;;;;;5072813;28;20196;-82
2023/04/04 01:09:02;;;;;;;2.67;1.83;;;2.90;99.90;;;;;;5076178;28;20253;-83
2023/04/04 01:11:31;;;;;;;1.60;1.50;;;2.90;99.90;;;;;;5066589;28;20220;-83
2023/04/04 01:13:58;;;;;;;4.80;2.03;;;2.90;99.90;;;;;;5056232;28;20217;-82
2023/04/04 01:16:26;;;;;;;2.10;1.40;;;2.90;99.90;;;;;;5055792;28;20709;-79
2023/04/04 01:18:55;;;;;;;2.87;1.80;;;2.80;99.90;;;;;;5064921;28;20209;-82
2023/04/04 01:21:23;;;;;;;3.13;1.73;;;2.80;99.90;;;;;;5075851;28;20201;-82
2023/04/04 01:23:58;;;;;;;3.57;2.07;;;2.80;99.90;;;;;;5059855;28;20256;-83
2023/04/04 01:26:27;;;;;;;2.77;1.83;;;2.70;99.90;;;;;;5056090;28;20186;-81
2023/04/04 01:28:54;;;;;;;1.93;1.60;;;2.70;99.90;;;;;;5061029;28;20209;-82
2023/04/04 01:31:35;;;;;;;3.37;2.07;;;2.70;99.90;;;;;;5075656;28;20615;-83
2023/04/04 01:34:10;;;;;;;3.00;2.10;;;2.60;99.90;;;;;;5075516;28;20235;-82
2023/04/04 01:36:46;;;;;;;3.43;2.20;;;2.60;99.90;;;;;;5074984;28;20197;-83
2023/04/04 01:39:22;;;;;;;2.97;2.30;;;2.50;99.90;;;;;;5075899;28;20201;-81
2023/04/04 01:41:51;;;;;;;2.40;1.90;;;2.40;99.90;;;;;;5067763;28;20501;-81
2023/04/04 01:44:19;;;;;;;3.17;2.07;;;2.40;99.90;;;;;;5055363;28;20315;-81
2023/04/04 01:46:45;;;;;;;4.67;2.53;;;2.30;99.90;;;;;;5055743;28;20281;-80
2023/04/04 01:49:12;;;;;;;3.00;2.10;;;2.30;99.90;;;;;;5069646;28;20223;-83
2023/04/04 01:51:39;;;;;;;3.93;2.27;;;2.30;99.90;;;;;;5075260;28;20265;-80
2023/04/04 01:54:06;;;;;;;2.70;2.30;;;2.20;99.90;;;;;;5075834;28;20576;-83
2023/04/04 01:56:33;;;;;;;3.03;2.33;;;2.20;99.90;;;;;;5063786;28;20212;-81
2023/04/04 01:59:02;;;;;;;2.50;2.20;;;2.10;99.90;;;;;;5055814;28;20281;-81
2023/04/04 02:01:29;;;;;;;2.27;2.00;;;2.10;99.90;;;;;;5055257;28;20205;-82
2023/04/04 02:03:57;;;;;;;4.80;2.43;;;2.10;99.90;;;;;;5062501;28;20225;-81
2023/04/04 02:06:23;;;;;;;2.70;1.97;;;2.10;99.90;;;;;;5074994;28;20275;-81
2023/04/04 02:08:51;;;;;;;2.30;2.10;;;2.10;99.90;;;;;;5075384;28;20237;-80
2023/04/04 02:11:21;;;;;;;2.33;1.87;;;2.00;99.90;;;;;;5074723;28;20657;-81
2023/04/04 02:13:48;;;;;;;2.70;2.00;;;2.00;99.90;;;;;;5075411;28;20217;-81
2023/04/04 02:16:17;;;;;;;4.70;2.10;;;2.00;99.90;;;;;;5074904;28;20301;-82
2023/04/04 02:18:44;;;;;;;3.07;2.17;;;1.90;99.90;;;;;;5073596;28;20665;-81
2023/04/04 02:21:10;;;;;;;2.87;2.30;;;1.90;99.90;;;;;;5074680;28;20203;-81
2023/04/04 02:23:38;;;;;;;4.57;2.83;;;1.90;99.90;;;;;;5061457;28;20622;-80
2023/04/04 02:26:05;;;;;;;6.20;3.23;;;1.80;99.90;;;;;;5077834;28;20200;-81
2023/04/04 02:28:32;;;;;;;4.40;2.83;;;1.80;99.90;;;;;;5095478;28;20229;-82
2023/04/04 02:31:01;;;;;;;4.03;2.73;;;1.80;99.90;;;;;;5095099;28;20279;-82
2023/04/04 02:33:30;;;;;;;4.07;2.70;;;1.70;99.90;;;;;;5082292;28;20587;-82
2023/04/04 02:35:57;;;;;;;3.40;2.47;;;1.70;99.90;;;;;;5054809;28;20208;-80
2023/04/04 02:38:24;;;;;;;3.87;2.30;;;1.70;99.90;;;;;;5055814;28;20210;-81
2023/04/04 02:40:51;;;;;;;4.13;2.50;;;1.70;99.90;;;;;;5054369;28;20317;-81
2023/04/04 02:43:18;;;;;;;2.77;2.20;;;1.60;99.90;;;;;;5054074;28;20221;-81
2023/04/04 02:45:47;;;;;;;3.57;2.07;;;1.60;99.90;;;;;;5053709;28;20268;-80
2023/04/04 02:48:15;;;;;;;2.83;2.17;;;1.60;99.90;;;;;;5054334;28;20281;-83
2023/04/04 02:50:43;;;;;;;2.80;2.33;;;1.60;99.90;;;;;;5054257;28;20543;-81
2023/04/04 02:53:10;;;;;;;2.53;2.10;;;1.60;99.90;;;;;;5054050;28;20200;-82
2023/04/04 02:55:37;;;;;;;3.20;2.30;;;1.60;99.90;;;;;;5085342;28;20215;-81
2023/04/04 02:58:04;;;;;;;3.10;2.20;;;1.60;99.90;;;;;;5094717;28;20201;-82
2023/04/04 03:00:31;;;;;;;5.30;2.30;;;1.50;99.90;;;;;;5093878;28;20494;-80
2023/04/04 03:02:58;;;;;;;3.57;2.60;;;1.50;99.90;;;;;;5094346;28;20287;-81
2023/04/04 03:05:25;;;;;;;3.13;2.80;;;1.50;99.90;;;;;;5075166;28;20612;-82
2023/04/04 03:07:56;;;;;;;3.67;2.73;;;1.50;99.90;;;;;;5074005;28;20617;-80
2023/04/04 03:10:23;;;;;;;3.63;2.20;;;1.40;99.90;;;;;;5069293;28;20301;-82
2023/04/04 03:12:50;;;;;;;4.03;2.40;;;1.40;99.90;;;;;;5054105;28;20297;-80
2023/04/04 03:15:17;;;;;;;4.87;2.80;;;1.30;99.90;;;;;;5053993;28;20601;-81
2023/04/04 03:17:45;;;;;;;2.60;2.30;;;1.30;99.90;;;;;;5053975;28;20228;-82
2023/04/04 03:20:13;;;;;;;2.80;2.27;;;1.30;99.90;;;;;;5053921;28;20264;-81
2023/04/04 03:22:40;;;;;;;3.03;2.30;;;1.30;99.90;;;;;;5086517;28;20545;-81
2023/04/04 03:25:10;;;;;;;3.70;2.30;;;1.30;99.90;;;;;;5094451;28;20251;-82
2023/04/04 03:27:38;;;;;;;3.87;2.50;;;1.20;99.90;;;;;;5093735;28;20211;-81
2023/04/04 03:30:06;;;;;;;3.83;2.20;;;1.30;99.90;;;;;;5093242;28;20201;-80
2023/04/04 03:32:33;;;;;;;3.53;2.90;;;1.20;99.90;;;;;;5061202;28;20759;-79
2023/04/04 03:35:00;;;;;;;3.93;2.50;;;1.20;99.90;;;;;;5053440;28;20194;-83
2023/04/04 03:37:29;;;;;;;5.87;3.37;;;1.20;99.90;;;;;;5053538;28;20187;-80
2023/04/04 03:39:55;;;;;;;2.47;2.10;;;1.20;99.90;;;;;;5070806;28;20613;-83
2023/04/04 03:42:25;;;;;;;2.93;2.23;;;1.10;99.90;;;;;;5073339;28;20283;-81
2023/04/04 03:44:52;;;;;;;2.87;2.27;;;1.10;99.90;;;;;;5072802;28;20657;-78
2023/04/04 03:47:19;;;;;;;3.73;2.60;;;1.10;99.90;;;;;;5072978;28;20197;-82
2023/04/04 03:49:46;;;;;;;3.67;2.63;;;1.10;99.90;;;;;;5072954;28;20621;-81
2023/04/04 03:52:13;;;;;;;3.00;2.50;;;1.00;99.90;;;;;;5073397;28;20265;-81
2023/04/04 03:54:40;;;;;;;3.53;2.30;;;1.00;99.90;;;;;;5063269;28;20293;-82
2023/04/04 03:57:07;;;;;;;5.33;3.10;;;1.00;99.90;;;;;;5052913;28;20209;-81
2023/04/04 03:59:36;;;;;;;5.23;3.30;;;1.00;99.90;;;;;;5053126;28;20192;-82
2023/04/04 04:02:03;;;;;;;3.90;2.53;;;1.00;99.90;;;;;;5053771;28;20248;-84
2023/04/04 04:04:30;;;;;;;3.53;2.57;;;1.00;99.90;;;;;;5051785;28;20225;-83
2023/04/04 04:06:57;;;;;;;4.90;3.10;;;0.90;99.90;;;;;;5052737;28;20202;-81
2023/04/04 04:09:25;;;;;;;2.47;2.27;;;0.90;99.90;;;;;;5053470;28;20216;-80
2023/04/04 04:11:51;;;;;;;2.90;2.20;;;0.90;99.90;;;;;;5051750;28;20202;-81
2023/04/04 04:14:18;;;;;;;3.47;2.50;;;0.90;99.90;;;;;;5052531;28;20297;-82
2023/04/04 04:16:47;;;;;;;2.70;2.30;;;0.90;99.90;;;;;;5052723;28;20274;-81
2023/04/04 04:19:14;;;;;;;4.30;2.80;;;0.90;99.90;;;;;;5061596;28;20336;-82
2023/04/04 04:21:41;;;;;;;4.50;3.13;;;0.80;99.90;;;;;;5072085;28;20284;-83
2023/04/04 04:24:09;;;;;;;3.07;2.60;;;0.80;99.90;;;;;;5070812;28;20217;-80
2023/04/04 04:26:36;;;;;;;2.70;2.50;;;0.80;99.90;;;;;;5071698;28;20248;-82
2023/04/04 04:29:03;;;;;;;4.23;2.87;;;0.80;99.90;;;;;;5062905;28;20222;-81
2023/04/04 04:31:30;;;;;;;2.90;2.60;;;0.80;99.90;;;;;;5051309;28;20267;-81
2023/04/04 04:33:58;;;;;;;3.50;2.93;;;0.80;99.90;;;;;;5052166;28;20194;-80
2023/04/04 04:36:25;;;;;;;4.60;2.90;;;0.70;99.90;;;;;;5052869;28;20282;-80
2023/04/04 04:38:52;;;;;;;6.80;3.70;;;0.70;99.90;;;;;;5051355;28;20295;-81
2023/04/04 04:41:19;;;;;;;3.47;2.83;;;0.70;99.90;;;;;;5052525;28;20768;-80
2023/04/04 04:43:46;;;;;;;3.80;3.40;;;0.70;99.90;;;;;;5054595;28;20241;-79
2023/04/04 04:46:13;;;;;;;5.63;3.37;;;0.70;99.90;;;;;;5068588;28;20251;-80
2023/04/04 04:48:40;;;;;;;4.13;3.07;;;0.60;99.90;;;;;;5076773;28;20238;-80
2023/04/04 04:51:09;;;;;;;3.57;3.23;;;0.60;99.90;;;;;;5075955;28;20228;-79
2023/04/04 04:53:36;;;;;;;3.80;3.13;;;0.60;99.90;;;;;;5075048;28;20212;-79
2023/04/04 04:56:04;;;;;;;3.27;2.97;;;0.60;99.90;;;;;;5075967;28;20203;-78
2023/04/04 04:58:31;;;;;;;4.17;3.10;;;0.60;99.90;;;;;;5061152;28;20210;-78
2023/04/04 05:00:58;;;;;;;4.10;3.17;;;0.60;99.90;;;;;;5057237;28;20292;-79
2023/04/04 05:03:25;;;;;;;5.90;4.27;;;0.60;99.90;;;;;;5075833;28;20255;-80
2023/04/04 05:05:52;;;;;;;5.00;3.60;;;0.60;99.90;;;;;;5075697;28;20197;-79
2023/04/04 05:08:20;;;;;;;4.80;4.00;;;0.60;99.90;;;;;;5075251;28;20593;-80
2023/04/04 05:10:47;;;;;;;6.13;3.87;;;0.60;99.90;;;;;;5075743;28;20746;-79
2023/04/04 05:13:14;;;;;;;7.00;3.90;;;0.50;99.90;;;;;;5069527;28;20641;-79
2023/04/04 05:15:41;;;;;;;5.77;4.13;;;0.50;99.90;;;;;;5055022;28;20220;-80
2023/04/04 05:18:08;;;;;;;4.70;3.80;;;0.50;99.90;;;;;;5055184;28;20678;-79
2023/04/04 05:20:35;;;;;;;5.90;4.07;;;0.50;99.90;;;;;;5054222;28;20501;-80
2023/04/04 05:23:02;;;;;;;7.33;3.60;;;0.50;99.90;;;;;;5055424;28;20206;-82
2023/04/04 05:25:30;;;;;;;3.70;3.30;;;0.50;99.90;;;;;;5055348;28;20848;-78
2023/04/04 05:27:57;;;;;;;7.67;4.33;;;0.50;99.90;;;;;;5065321;28;20224;-79
2023/04/04 05:30:24;;;;;;;7.00;4.53;;;0.50;99.90;;;;;;5075802;28;20232;-78
2023/04/04 05:32:51;;;;;;;5.90;4.00;;;0.50;99.90;;;;;;5075699;28;20201;-78
2023/04/04 05:35:18;;;;;;;5.07;3.80;;;0.50;99.90;;;;;;5074328;28;20208;-77
2023/04/04 05:37:45;;;;;;;5.20;3.83;;;0.50;99.90;;;;;;5055536;28;20234;-78
2023/04/04 05:40:12;;;;;;;5.60;4.10;;;0.50;99.90;;;;;;5055675;28;20572;-78
2023/04/04 05:42:41;;;;;;;5.30;4.30;;;0.50;99.90;;;;;;5054867;28;20193;-78
2023/04/04 05:45:09;;;;;;;6.00;4.20;;;0.50;99.90;;;;;;5054903;28;20824;-79
2023/04/04 05:47:36;;;;;;;5.33;3.83;;;0.50;99.90;;;;;;5055804;28;20213;-79
2023/04/04 05:50:03;;;;;;;5.87;4.23;;;0.60;99.90;;;;;;5054742;28;20276;-79
2023/04/04 05:52:30;;;;;;;4.43;3.80;;;0.60;99.90;;;;;;5055128;28;20288;-78
2023/04/04 05:54:57;;;;;;;5.87;4.10;;;0.70;99.90;;;;;;5054943;28;20243;-81
2023/04/04 05:57:24;;;;;;;6.23;4.50;;;0.70;99.90;;;;;;5055495;28;20198;-80
2023/04/04 05:59:53;;;;;;;6.93;5.07;;;0.80;99.90;;;;;;5054870;28;20205;-81
2023/04/04 06:02:20;;;;;;;4.80;4.13;;;0.80;99.90;;;;;;5055345;28;20259;-78
2023/04/04 06:04:47;;;;;;;7.73;4.43;;;0.90;99.90;;;;;;5072218;28;20303;-78
2023/04/04 06:07:15;;;;;;;8.17;4.83;;;0.90;99.90;;;;;;5074899;28;20288;-79
2023/04/04 06:09:42;;;;;;;5.67;4.33;;;0.90;99.90;;;;;;5074271;28;20197;-79
2023/04/04 06:12:09;;;;;;;7.37;4.57;;;1.00;99.90;;;;;;5084343;28;20212;-84
2023/04/04 06:14:36;;;;;;;6.40;4.97;;;1.00;99.90;;;;;;5095347;28;20239;-79
2023/04/04 06:17:05;;;;;;;5.83;4.73;;;1.00;99.90;;;;;;5094974;28;20285;-80
2023/04/04 06:19:32;;;;;;;8.40;4.87;;;1.00;99.90;;;;;;5094635;28;20244;-81
2023/04/04 06:21:59;;;;;;;7.23;4.70;;;1.10;99.90;;;;;;5095412;28;20200;-81
2023/04/04 06:24:26;;;;;;;5.47;4.57;;;1.10;99.90;;;;;;5076965;28;20303;-81
2023/04/04 06:26:53;;;;;;;6.90;5.53;;;1.10;99.90;;;;;;5075292;28;20254;-81
2023/04/04 06:29:20;;;;;;;8.13;5.97;;;1.20;99.90;;;;;;5075835;28;20212;-81
2023/04/04 06:31:47;;;;;;;9.27;5.73;;;1.20;99.90;;;;;;5074285;28;20516;-80
2023/04/04 06:34:15;;;;;;;8.50;5.87;;;1.30;99.90;;;;;;5066023;28;20202;-81
2023/04/04 06:36:42;;;;;;;7.60;5.70;;;1.30;99.90;;;;;;5054312;28;20689;-81
2023/04/04 06:39:09;;;;;;;9.43;6.90;;;1.40;99.90;;;;;;5054699;28;20212;-79
2023/04/04 06:41:36;;;;;;;10.30;6.30;;;1.50;99.90;;;;;;5042651;28;20393;-79
2023/04/04 06:44:03;;;;;;;9.53;6.93;;;1.60;99.90;;;;;;5072739;28;20221;-79
2023/04/04 06:46:31;;;;;;;8.83;7.17;;;1.70;99.90;;;;;;5073497;28;20231;-79
2023/04/04 06:48:58;;;;;;;13.13;8.33;;;1.80;99.90;;;;;;5073712;28;20209;-79
2023/04/04 06:51:27;;;;;;;12.10;7.77;;;1.90;99.90;;;;;;5072056;28;20293;-79
2023/04/04 06:53:55;;;;;;;12.97;8.00;;;2.00;99.90;;;;;;5072948;28;20213;-79
2023/04/04 06:56:23;;;;;;;11.40;8.07;;;2.10;99.90;;;;;;5055736;28;20208;-79
2023/04/04 06:58:50;;;;;;;12.17;7.90;;;2.20;99.90;;;;;;5074275;28;20193;-79
2023/04/04 07:01:17;;;;;;;11.80;7.70;;;2.30;99.90;;;;;;5094315;28;20200;-80
2023/04/04 07:03:44;;;;;;;12.90;7.70;;;2.30;99.90;;;;;;5078363;28;20236;-80
2023/04/04 07:06:11;;;;;;;9.27;7.47;;;2.40;99.90;;;;;;5073073;28;20679;-80
2023/04/04 07:08:40;;;;;;;11.90;7.87;;;2.50;99.90;;;;;;5071906;28;20371;-79
2023/04/04 07:11:07;;;;;;;11.37;7.37;;;2.60;99.90;;;;;;5073848;28;20204;-81
2023/04/04 07:13:35;;;;;;;14.23;8.67;;;2.80;99.90;;;;;;5073525;28;20225;-82
2023/04/04 07:16:02;;;;;;;13.23;8.03;;;3.00;99.90;;;;;;5073513;28;20201;-81
2023/04/04 07:18:29;;;;;;;13.83;8.90;;;3.10;99.90;;;;;;5061805;28;20833;-83
2023/04/04 07:20:56;;;;;;;10.00;7.47;;;3.30;99.90;;;;;;5055119;28;20202;-83
2023/04/04 07:23:23;;;;;;;9.07;7.10;;;3.40;99.90;;;;;;5074017;28;20669;-82
2023/04/04 07:25:52;;;;;;;12.27;8.27;;;3.60;99.90;;;;;;5074702;28;20304;-83
2023/04/04 07:28:19;;;;;;;9.57;7.40;;;3.80;99.90;;;;;;5074006;28;20228;-82
2023/04/04 07:30:46;;;;;;;13.17;7.43;;;3.90;99.90;;;;;;5074232;28;20204;-83
2023/04/04 07:33:13;;;;;;;10.37;7.03;;;4.10;99.90;;;;;;5074263;28;20283;-82
2023/04/04 07:35:40;;;;;;;11.33;7.07;;;4.20;99.90;;;;;;5073539;28;20280;-81
2023/04/04 07:38:07;;;;;;;11.40;6.77;;;4.40;99.90;;;;;;5074377;28;20189;-80
2023/04/04 07:40:34;;;;;;;8.43;6.13;;;4.50;99.90;;;;;;5073009;28;20189;-82
2023/04/04 07:43:02;;;;;;;11.10;5.60;;;4.60;99.90;;;;;;5072930;28;20227;-81
2023/04/04 07:45:29;;;;;;;13.00;6.73;;;4.70;99.90;;;;;;5068995;28;20265;-82
2023/04/04 07:47:56;;;;;;;7.83;4.40;;;4.80;99.90;;;;;;5084094;28;20234;-83
2023/04/04 07:50:23;;;;;;;7.37;4.67;;;4.90;99.90;;;;;;5093963;28;20189;-83
2023/04/04 07:52:53;;;;;;;6.67;5.00;;;5.00;99.90;;;;;;5088342;28;20280;-83
2023/04/04 07:55:20;;;;;;;7.53;4.70;;;5.10;99.90;;;;;;5073734;28;20193;-81
2023/04/04 07:57:47;;;;;;;6.80;4.47;;;5.30;99.90;;;;;;5074233;28;20517;-84
2023/04/04 08:00:16;;;;;;;6.77;4.47;;;5.40;99.90;;;;;;5074660;28;20217;-84
2023/04/04 08:02:44;;;;;;;7.33;4.60;;;5.50;99.90;;;;;;5073489;28;20201;-84
2023/04/04 08:05:11;;;;;;;6.73;3.73;;;5.70;99.90;;;;;;5073846;28;20639;-84
2023/04/04 08:07:38;;;;;;;6.30;3.20;;;5.80;99.90;;;;;;5074375;28;20201;-84
2023/04/04 08:10:06;;;;;;;5.73;3.43;;;6.00;99.90;;;;;;5075601;28;20203;-85
2023/04/04 08:12:33;;;;;;;5.87;3.27;;;6.20;99.90;;;;;;5075665;28;20227;-84
2023/04/04 08:15:00;;;;;;;5.17;3.00;;;6.40;99.90;;;;;;5073766;28;20621;-87
2023/04/04 08:17:29;;;;;;;4.20;2.77;;;6.60;99.90;;;;;;5071965;28;20205;-84
2023/04/04 08:19:56;;;;;;;6.10;3.07;;;6.90;99.90;;;;;;5073378;28;20205;-84
2023/04/04 08:22:23;;;;;;;4.07;2.37;;;7.10;99.90;;;;;;5073600;28;20213;-85
2023/04/04 08:24:50;;;;;;;7.90;2.50;;;7.40;1.00;;;;;;5072179;28;20231;-82
2023/04/04 08:27:17;;;;;;;78.57;10.70;;;7.70;1.00;;;;;;5073323;28;20209;-82
2023/04/04 08:29:44;;;;;;;6.37;2.67;;;8.00;1.00;;;;;;5073998;28;20589;-82
2023/04/04 08:32:11;;;;;;;4.00;2.20;;;8.10;99.90;;;;;;5072982;28;20217;-83
2023/04/04 08:34:40;;;;;;;3.97;2.20;;;8.30;99.90;;;;;;5073460;28;20209;-84
2023/04/04 08:37:07;;;;;;;8.73;3.27;;;8.50;99.90;;;;;;5073436;28;20203;-83
2023/04/04 08:39:34;;;;;;;105.93;15.07;;;8.80;99.90;;;;;;5072836;28;20636;-82
2023/04/04 08:42:04;;;;;;;273.63;31.17;;;9.00;99.90;;;;;;5083546;28;20218;-83
2023/04/04 08:44:32;;;;;;;12.30;3.77;;;9.20;99.90;;;;;;5092106;28;20591;-83
2023/04/04 08:47:00;;;;;;;12.80;3.20;;;9.40;99.90;;;;;;5093476;28;20213;-82
2023/04/04 08:49:29;;;;;;;6.53;2.93;;;9.60;99.90;;;;;;5093698;28;20258;-82
2023/04/04 08:51:59;;;;;;;4.33;2.70;;;9.70;99.90;;;;;;5087847;28;20223;-83
2023/04/04 08:54:28;;;;;;;4.63;2.00;;;9.90;99.90;;;;;;5073493;28;20219;-85
2023/04/04 08:56:55;;;;;;;3.77;1.80;;;10.00;99.90;;;;;;5072511;28;20259;-83
2023/04/04 08:59:22;;;;;;;3.60;1.40;;;10.00;99.90;;;;;;5076753;28;20212;-82
2023/04/04 09:01:58;;;;;;;3.73;1.80;;;10.10;99.90;;;;;;5093389;28;20247;-82
2023/04/04 09:04:26;;;;;;;4.97;1.90;;;10.10;99.90;;;;;;5093399;28;20204;-83
2023/04/04 09:06:53;;;;;;;2.93;1.90;;;10.30;99.90;;;;;;5092529;28;20277;-83
2023/04/04 09:09:25;;;;;;;2.90;1.70;;;10.30;99.90;;;;;;5077416;28;20237;-83
2023/04/04 09:11:52;;;;;;;27.93;4.50;;;10.50;99.90;;;;;;5052919;28;20212;-81
2023/04/04 09:14:21;;;;;;;11.63;2.90;;;10.60;99.90;;;;;;5052574;28;20309;-83
2023/04/04 09:16:48;;;;;;;3.73;1.97;;;10.60;99.90;;;;;;5052920;28;20217;-81
2023/04/04 09:19:15;;;;;;;6.00;2.27;;;10.60;99.90;;;;;;5053504;28;20296;-81
2023/04/04 09:21:47;;;;;;;4.17;2.10;;;10.60;99.90;;;;;;5051616;28;20207;-81
2023/04/04 09:24:14;;;;;;;70.30;9.60;;;10.50;99.90;;;;;;5052387;28;20226;-82
2023/04/04 09:26:50;;;;;;;4.73;1.70;;;10.50;99.90;;;;;;5052423;28;20229;-82
2023/04/04 09:29:18;;;;;;;5.57;2.00;;;10.50;99.90;;;;;;5054465;28;20201;-82
2023/04/04 09:31:45;;;;;;;6.27;2.20;;;10.50;99.90;;;;;;5055905;28;20225;-82
2023/04/04 09:34:13;;;;;;;4.10;2.00;;;10.60;99.90;;;;;;5059741;28;20255;-81
2023/04/04 09:36:41;;;;;;;5.20;1.90;;;10.60;99.90;;;;;;5055566;28;20206;-81
2023/04/04 09:39:08;;;;;;;9.53;3.40;;;10.60;99.90;;;;;;5056032;28;20216;-80
2023/04/04 09:41:38;;;;;;;5.00;2.53;;;10.70;99.90;;;;;;5070665;28;20526;-80
2023/04/04 09:44:07;;;;;;;20.70;4.23;;;10.90;99.90;;;;;;5075805;28;20665;-81
2023/04/04 09:46:35;;;;;;;4.90;3.00;;;10.90;99.90;;;;;;5075115;28;20311;-81
2023/04/04 09:49:03;;;;;;;4.00;2.23;;;10.90;99.90;;;;;;5075012;28;20217;-81
2023/04/04 09:51:35;;;;;;;3.60;2.00;;;10.90;99.90;;;;;;5075855;28;20204;-81
2023/04/04 09:54:02;;;;;;;5.93;2.40;;;11.00;99.90;;;;;;5076312;28;20509;-84
2023/04/04 09:56:29;;;;;;;63.40;7.20;;;11.20;99.90;;;;;;5078804;28;20633;-80
2023/04/04 09:58:56;;;;;;;7.23;2.40;;;11.20;99.90;;;;;;5096638;28;20231;-84
2023/04/04 10:01:26;;;;;;;6.67;2.90;;;11.30;99.90;;;;;;5095898;28;20668;-79
2023/04/04 10:03:54;;;;;;;6.83;2.87;;;11.50;99.90;;;;;;5095760;28;20197;-81
2023/04/04 10:06:22;;;;;;;3.73;2.20;;;11.40;99.90;;;;;;5079389;28;20245;-81
2023/04/04 10:08:50;;;;;;;4.80;2.67;;;11.50;99.90;;;;;;5075716;28;20217;-82
2023/04/04 10:11:30;;;;;;;4.30;2.10;;;11.40;99.90;;;;;;5075760;28;20267;-81
2023/04/04 10:13:57;;;;;;;5.40;2.20;;;11.40;99.90;;;;;;5056579;28;20229;-83
2023/04/04 10:16:26;;;;;;;3.40;2.10;;;11.30;99.90;;;;;;5055700;28;20190;-82
2023/04/04 10:18:53;;;;;;;3.53;2.10;;;11.30;99.90;;;;;;5057297;28;20297;-83
2023/04/04 10:21:21;;;;;;;6.60;2.53;;;11.30;99.90;;;;;;5076009;28;20215;-83
2023/04/04 10:23:49;;;;;;;4.23;2.23;;;11.20;99.90;;;;;;5075033;28;20527;-81
2023/04/04 10:26:16;;;;;;;4.70;2.67;;;11.20;99.90;;;;;;5075370;28;20641;-82
2023/04/04 10:28:43;;;;;;;3.57;2.33;;;11.00;99.90;;;;;;5071687;28;20281;-81
2023/04/04 10:31:17;;;;;;;2.80;2.40;;;11.00;99.90;;;;;;5055326;28;20815;-82
2023/04/04 10:33:52;;;;;;;4.37;2.10;;;11.20;99.90;;;;;;5055491;28;20198;-79
2023/04/04 10:36:23;;;;;;;2.93;2.40;;;11.30;99.90;;;;;;5054873;28;20217;-82
2023/04/04 10:38:58;;;;;;;5.03;2.67;;;11.60;99.90;;;;;;5054522;28;20209;-82
2023/04/04 10:41:29;;;;;;;4.33;2.43;;;11.80;99.90;;;;;;5054028;28;20205;-82
2023/04/04 10:44:01;;;;;;;5.30;2.70;;;12.00;99.90;;;;;;5055002;28;20320;-80
2023/04/04 10:46:31;;;;;;;6.00;2.40;;;12.10;99.90;;;;;;5054246;28;20325;-79
2023/04/04 10:49:01;;;;;;;6.17;2.60;;;12.20;99.90;;;;;;5054720;28;20244;-80
2023/04/04 10:51:31;;;;;;;2.83;1.93;;;12.20;99.90;;;;;;5054635;28;20210;-81
2023/04/04 10:53:59;;;;;;;4.63;2.20;;;12.00;99.90;;;;;;5054197;28;20478;-80
2023/04/04 10:56:27;;;;;;;4.70;2.30;;;12.10;99.90;;;;;;5053846;28;20926;-82
2023/04/04 10:59:10;;;;;;;3.43;2.20;;;12.20;99.90;;;;;;5053168;28;20212;-79
2023/04/04 11:01:55;;;;;;;5.00;2.73;;;12.40;99.90;;;;;;5070586;28;20198;-82
2023/04/04 11:04:31;;;;;;;5.30;2.70;;;12.40;99.90;;;;;;5074461;28;20188;-81
2023/04/04 11:07:15;;;;;;;4.40;2.27;;;12.30;99.90;;;;;;5073701;28;20228;-82
2023/04/04 11:09:53;;;;;;;5.37;2.70;;;12.10;99.90;;;;;;5092498;28;20897;-81
2023/04/04 11:12:22;;;;;;;5.70;3.40;;;11.90;99.90;;;;;;5087832;28;20201;-81
2023/04/04 11:15:11;;;;;;;2.53;2.00;;;12.00;99.90;;;;;;5074411;28;20247;-81
2023/04/04 11:17:57;;;;;;;4.07;2.20;;;12.20;99.90;;;;;;5071197;28;20563;-81
2023/04/04 11:20:29;;;;;;;4.63;2.33;;;12.50;99.90;;;;;;5088992;28;20208;-83
2023/04/04 11:23:07;;;;;;;4.60;2.50;;;12.70;99.90;;;;;;5091344;28;20213;-83
2023/04/04 11:25:39;;;;;;;5.87;2.50;;;13.00;99.90;;;;;;5074728;28;20205;-83
2023/04/04 11:28:14;;;;;;;3.43;2.57;;;13.40;99.90;;;;;;5073233;28;20617;-80
2023/04/04 11:30:49;;;;;;;4.83;2.43;;;13.40;99.90;;;;;;5058653;28;20628;-81
2023/04/04 11:33:30;;;;;;;3.63;2.27;;;13.20;99.90;;;;;;5054835;28;20237;-81
2023/04/04 11:36:05;;;;;;;4.30;2.33;;;13.10;99.90;;;;;;5053087;28;20849;-83
2023/04/04 11:38:32;;;;;;;5.60;2.83;;;13.30;99.90;;;;;;5052932;28;20229;-82
2023/04/04 11:40:59;;;;;;;4.60;2.77;;;13.50;99.90;;;;;;5071996;28;20804;-83
2023/04/04 11:43:27;;;;;;;5.30;3.00;;;13.80;99.90;;;;;;5074657;28;20225;-82
2023/04/04 11:45:55;;;;;;;3.70;2.40;;;13.90;99.90;;;;;;5074682;28;20227;-83
2023/04/04 11:48:23;;;;;;;4.57;2.30;;;14.00;99.90;;;;;;5074405;28;20212;-84
2023/04/04 11:50:51;;;;;;;5.17;2.83;;;14.00;99.90;;;;;;5074767;28;20197;-83
2023/04/04 11:53:19;;;;;;;4.13;2.33;;;14.00;99.90;;;;;;5072526;28;20201;-83
2023/04/04 11:55:50;;;;;;;4.65;2.50;;;14.10;99.90;;;;;;5073384;28;20216;-81
2023/04/04 11:58:18;;;;;;;3.70;2.87;;;14.10;99.90;;;;;;5075879;28;20213;-83
2023/04/04 12:00:46;;;;;;;6.37;3.23;;;14.00;99.90;;;;;;5073212;28;20227;-80
2023/04/04 12:03:17;;;;;;;5.25;3.10;;;14.00;99.90;;;;;;5053199;28;20283;-84
2023/04/04 12:05:44;;;;;;;3.92;3.03;;;14.20;99.90;;;;;;5061734;28;20247;-82
2023/04/04 12:08:12;;;;;;;4.43;3.47;;;14.40;99.90;;;;;;5074290;28;20571;-84
2023/04/04 12:10:40;;;;;;;6.17;3.30;;;14.40;99.90;;;;;;5068778;28;20293;-85
2023/04/04 12:13:08;;;;;;;4.90;2.70;;;14.40;99.90;;;;;;5053655;28;20268;-82
2023/04/04 12:15:36;;;;;;;4.78;3.20;;;14.50;99.90;;;;;;5053490;28;20206;-83
2023/04/04 12:18:06;;;;;;;4.18;2.97;;;14.30;99.90;;;;;;5053870;28;20289;-82
2023/04/04 12:20:33;;;;;;;5.47;3.20;;;13.90;99.90;;;;;;5061474;28;20291;-83
2023/04/04 12:23:00;;;;;;;5.30;3.07;;;13.80;99.90;;;;;;5073507;28;20209;-83
2023/04/04 12:25:32;;;;;;;4.37;2.77;;;13.90;99.90;;;;;;5073924;28;20291;-83
2023/04/04 12:28:05;;;;;;;5.60;3.17;;;13.60;99.90;;;;;;5073010;28;20311;-83
2023/04/04 12:30:33;;;;;;;6.53;3.47;;;13.40;99.90;;;;;;5055197;28;20212;-83
2023/04/04 12:33:00;;;;;;;5.63;3.03;;;13.40;99.90;;;;;;5073199;28;20233;-82
2023/04/04 12:35:27;;;;;;;3.17;2.63;;;13.30;99.90;;;;;;5072551;28;20209;-83
2023/04/04 12:38:02;;;;;;;3.67;2.60;;;13.40;99.90;;;;;;5084704;22;20673;-83
2023/04/04 12:40:32;;;;;;;5.00;2.50;;;13.50;99.90;;;;;;5103961;28;20202;-84
2023/04/04 12:43:01;;;;;;;4.82;2.80;;;13.80;99.90;;;;;;5095798;28;20208;-85
2023/04/04 12:45:28;;;;;;;4.18;2.70;;;13.70;99.90;;;;;;5099638;28;20236;-84
2023/04/04 12:47:57;;;;;;;5.70;3.10;;;13.90;99.90;;;;;;5103840;28;20306;-83
2023/04/04 12:50:26;;;;;;;5.30;2.67;;;14.00;99.90;;;;;;5105851;28;20204;-85
2023/04/04 12:52:53;;;;;;;5.03;2.97;;;14.10;99.90;;;;;;5095476;28;20260;-85
2023/04/04 12:55:22;;;;;;;4.05;2.80;;;14.10;99.90;;;;;;5097658;28;20204;-86
2023/04/04 12:57:50;;;;;;;5.13;2.50;;;14.30;99.90;;;;;;5094227;28;20663;-85